Time;durP1;ratioP1;P1;durP2;ratioP2;P2;SDS_P1;SDS_P2;PMS_P1;PMS_P2;Temp;Humidity;BMP_temperature;BMP_pressure;BME280_temperature;BME280_humidity;BME280_pressure;Samples;Min_cycle;Max_cycle;Signal;HPM_P1;HPM_P2
2023/09/22 00:00:11;;;;;;;;;;;16.70;99.90;;;;;;4184919;28;20037;-70
2023/09/22 00:02:11;;;;;;;1.83;1.35;;;16.70;99.90;;;;;;4181671;28;20106;-70
2023/09/22 00:04:12;;;;;;;2.30;1.52;;;16.70;99.90;;;;;;4182151;28;20086;-71
2023/09/22 00:06:14;;;;;;;2.45;1.65;;;16.70;99.90;;;;;;4177505;28;20033;-70
2023/09/22 00:08:15;;;;;;;2.45;1.80;;;16.70;99.90;;;;;;4178233;28;20064;-70
2023/09/22 00:10:15;;;;;;;1.98;1.52;;;16.80;99.90;;;;;;4179001;28;20039;-71
2023/09/22 00:12:16;;;;;;;2.25;1.73;;;16.70;99.90;;;;;;4193167;28;20033;-71
2023/09/22 00:14:17;;;;;;;2.58;1.98;;;16.70;99.90;;;;;;4182963;28;20033;-70
2023/09/22 00:16:17;;;;;;;2.45;1.75;;;16.80;99.90;;;;;;4191124;28;20036;-71
2023/09/22 00:18:18;;;;;;;2.90;1.75;;;16.80;99.90;;;;;;4194657;28;20028;-71
2023/09/22 00:20:20;;;;;;;2.30;1.67;;;16.70;99.90;;;;;;4188175;28;20041;-71
2023/09/22 00:22:22;;;;;;;3.85;2.00;;;16.70;99.90;;;;;;4178200;28;20087;-71
2023/09/22 00:24:22;;;;;;;2.33;1.70;;;16.70;99.90;;;;;;4188342;28;20064;-70
2023/09/22 00:26:23;;;;;;;1.58;1.48;;;16.70;99.90;;;;;;4193908;28;20028;-71
2023/09/22 00:28:24;;;;;;;2.45;1.60;;;16.70;99.90;;;;;;4194050;28;20033;-71
2023/09/22 00:30:26;;;;;;;3.63;2.22;;;16.70;99.90;;;;;;4180861;28;20037;-71
2023/09/22 00:32:26;;;;;;;2.30;1.90;;;16.70;99.90;;;;;;4178452;28;20033;-71
2023/09/22 00:34:28;;;;;;;1.63;1.48;;;16.70;99.90;;;;;;4190160;28;20448;-71
2023/09/22 00:36:28;;;;;;;6.05;1.60;;;16.70;99.90;;;;;;4192421;28;20029;-71
2023/09/22 00:38:29;;;;;;;4.82;1.92;;;16.70;99.90;;;;;;4194046;28;20499;-70
2023/09/22 00:40:30;;;;;;;3.63;1.70;;;16.70;99.90;;;;;;4187538;28;20037;-71
2023/09/22 00:42:31;;;;;;;3.10;1.67;;;16.70;99.90;;;;;;4176534;28;20385;-71
2023/09/22 00:44:32;;;;;;;2.95;1.85;;;16.70;99.90;;;;;;4176646;28;20550;-71
2023/09/22 00:46:32;;;;;;;2.05;1.58;;;16.80;99.90;;;;;;4186311;28;20123;-71
2023/09/22 00:48:37;;;;;;;1.70;1.60;;;16.80;99.90;;;;;;4193869;28;20033;-71
2023/09/22 00:50:38;;;;;;;6.22;1.92;;;16.80;99.90;;;;;;4184874;28;20039;-71
2023/09/22 00:52:40;;;;;;;2.40;1.73;;;16.90;99.90;;;;;;4194131;28;20036;-71
2023/09/22 00:54:42;;;;;;;3.70;1.55;;;16.90;99.90;;;;;;4191962;28;20033;-70
2023/09/22 00:56:44;;;;;;;3.60;1.73;;;16.90;99.90;;;;;;4193450;28;20090;-70
2023/09/22 00:58:45;;;;;;;;;;;16.90;99.90;;;;;;4183071;28;20078;-71
2023/09/22 01:00:49;;;;;;;3.13;1.83;;;16.90;99.90;;;;;;4186962;28;19912;-71
2023/09/22 01:02:51;;;;;;;3.80;2.33;;;16.90;99.90;;;;;;4192253;28;20081;-70
2023/09/22 01:04:51;;;;;;;2.03;1.42;;;16.90;99.90;;;;;;4191297;28;20490;-71
2023/09/22 01:06:53;;;;;;;7.88;2.58;;;16.90;99.90;;;;;;4191275;28;20060;-70
2023/09/22 01:08:54;;;;;;;3.20;1.88;;;16.80;99.90;;;;;;4175989;28;20135;-70
2023/09/22 01:10:56;;;;;;;3.35;1.92;;;16.80;99.90;;;;;;4185865;28;20035;-70
2023/09/22 01:12:56;;;;;;;4.17;2.50;;;16.70;99.90;;;;;;4191530;28;20031;-70
2023/09/22 01:14:57;;;;;;;4.10;2.30;;;16.70;99.90;;;;;;4188476;28;20032;-71
2023/09/22 01:16:58;;;;;;;6.50;2.28;;;16.60;99.90;;;;;;4175354;28;20116;-70
2023/09/22 01:18:59;;;;;;;4.40;2.20;;;16.60;99.90;;;;;;4162179;28;20032;-70
2023/09/22 01:21:00;;;;;;;3.80;1.98;;;16.60;99.90;;;;;;4179845;28;20037;-71
2023/09/22 01:23:00;;;;;;;2.90;2.13;;;16.60;99.90;;;;;;4178223;28;20089;-71
2023/09/22 01:25:01;;;;;;;2.97;1.90;;;16.50;99.90;;;;;;4191721;28;20068;-71
2023/09/22 01:27:03;;;;;;;4.50;2.42;;;16.50;99.90;;;;;;4190481;28;20040;-71
2023/09/22 01:29:05;;;;;;;3.42;2.38;;;16.50;99.90;;;;;;4187131;28;20070;-70
2023/09/22 01:31:06;;;;;;;3.63;1.92;;;16.50;99.90;;;;;;4177991;28;20056;-71
2023/09/22 01:33:07;;;;;;;2.90;1.83;;;16.50;99.90;;;;;;4177131;28;20029;-71
2023/09/22 01:35:08;;;;;;;3.65;2.00;;;16.50;99.90;;;;;;4176789;28;20033;-70
2023/09/22 01:37:09;;;;;;;3.95;2.38;;;16.50;99.90;;;;;;4176892;28;20032;-71
2023/09/22 01:39:13;;;;;;;2.58;2.00;;;16.50;99.90;;;;;;4169352;28;20193;-71
2023/09/22 01:41:14;;;;;;;4.05;2.50;;;16.50;99.90;;;;;;4185232;28;20055;-71
2023/09/22 01:43:16;;;;;;;4.88;2.88;;;16.60;99.90;;;;;;4186101;28;20029;-71
2023/09/22 01:45:17;;;;;;;2.88;2.17;;;16.60;99.90;;;;;;4179246;28;20092;-71
2023/09/22 01:47:18;;;;;;;3.47;1.85;;;16.60;99.90;;;;;;4191719;28;20031;-71
2023/09/22 01:49:18;;;;;;;2.58;2.00;;;16.60;99.90;;;;;;4189505;28;20031;-71
2023/09/22 01:51:19;;;;;;;2.53;1.90;;;16.60;99.90;;;;;;4180037;28;20159;-69
2023/09/22 01:53:19;;;;;;;2.97;2.33;;;16.70;99.90;;;;;;4191113;28;20044;-68
2023/09/22 01:55:20;;;;;;;2.55;2.00;;;16.70;99.90;;;;;;4176127;28;20036;-69
2023/09/22 01:57:21;;;;;;;4.10;2.10;;;16.70;99.90;;;;;;4179120;28;20104;-69
2023/09/22 01:59:22;;;;;;;3.65;2.00;;;16.70;99.90;;;;;;4187181;28;20486;-72
2023/09/22 02:01:23;;;;;;;3.58;2.05;;;16.70;99.90;;;;;;4180766;28;21003;-72
2023/09/22 02:03:24;;;;;;;2.67;2.00;;;16.70;99.90;;;;;;4176401;28;20037;-71
2023/09/22 02:05:24;;;;;;;2.75;1.60;;;16.80;99.90;;;;;;4172714;28;20037;-72
2023/09/22 02:07:25;;;;;;;2.55;1.90;;;16.80;99.90;;;;;;4172508;28;20064;-72
2023/09/22 02:09:26;;;;;;;2.45;1.80;;;16.80;99.90;;;;;;4160925;28;20041;-72
2023/09/22 02:11:26;;;;;;;1.88;1.63;;;16.70;99.90;;;;;;4168196;28;20099;-68
2023/09/22 02:13:27;;;;;;;2.75;1.50;;;16.80;99.90;;;;;;4174567;28;20083;-67
2023/09/22 02:15:28;;;;;;;2.70;1.90;;;16.80;99.90;;;;;;4173731;28;20037;-67
2023/09/22 02:17:28;;;;;;;5.40;1.85;;;16.90;99.90;;;;;;4170895;28;20044;-67
2023/09/22 02:19:29;;;;;;;1.95;1.60;;;16.90;99.90;;;;;;4161658;28;20041;-68
2023/09/22 02:21:30;;;;;;;3.55;1.45;;;16.80;99.90;;;;;;4179912;28;20032;-69
2023/09/22 02:23:31;;;;;;;2.22;1.65;;;16.90;99.90;;;;;;4176749;28;20119;-68
2023/09/22 02:25:33;;;;;;;3.25;1.88;;;16.90;99.90;;;;;;4179977;28;20036;-67
2023/09/22 02:27:34;;;;;;;3.30;1.88;;;16.90;99.90;;;;;;4177758;28;20512;-67
2023/09/22 02:29:34;;;;;;;3.03;2.20;;;16.90;99.90;;;;;;4187530;28;20033;-68
2023/09/22 02:31:35;;;;;;;3.08;2.20;;;16.90;99.90;;;;;;4190231;28;20523;-67
2023/09/22 02:33:36;;;;;;;2.40;1.88;;;16.90;99.90;;;;;;4185531;28;20087;-68
2023/09/22 02:35:40;;;;;;;3.47;2.13;;;16.80;99.90;;;;;;4185305;28;20509;-70
2023/09/22 02:37:41;;;;;;;5.50;2.10;;;16.80;99.90;;;;;;4196790;28;20052;-67
2023/09/22 02:39:43;;;;;;;4.38;2.38;;;16.80;99.90;;;;;;4188006;28;20202;-67
2023/09/22 02:41:44;;;;;;;4.45;2.28;;;16.70;99.90;;;;;;4191096;28;20078;-67
2023/09/22 02:43:45;;;;;;;4.07;2.25;;;16.70;99.90;;;;;;4194407;28;20440;-68
2023/09/22 02:45:45;;;;;;;3.88;2.00;;;16.70;99.90;;;;;;4188472;28;20041;-68
2023/09/22 02:47:47;;;;;;;2.55;1.67;;;16.60;99.90;;;;;;4194868;28;20452;-67
2023/09/22 02:49:48;;;;;;;3.80;1.83;;;16.70;99.90;;;;;;4188896;28;20037;-67
2023/09/22 02:51:49;;;;;;;3.38;1.70;;;16.60;99.90;;;;;;4184205;28;20052;-68
2023/09/22 02:53:50;;;;;;;4.03;1.98;;;16.60;99.90;;;;;;4189359;28;20380;-68
2023/09/22 02:55:52;;;;;;;3.13;2.08;;;16.50;99.90;;;;;;4178781;28;20390;-68
2023/09/22 02:57:54;;;;;;;3.15;1.75;;;16.50;99.90;;;;;;4179450;28;20025;-68
2023/09/22 02:59:54;;;;;;;3.67;2.00;;;16.50;99.90;;;;;;4165885;28;20049;-68
2023/09/22 03:01:55;;;;;;;3.55;2.00;;;16.40;99.90;;;;;;4179867;28;20114;-69
2023/09/22 03:03:55;;;;;;;2.47;1.65;;;16.40;99.90;;;;;;4179792;28;20490;-69
2023/09/22 03:05:59;;;;;;;3.20;1.90;;;16.30;99.90;;;;;;4182092;28;20548;-70
2023/09/22 03:07:59;;;;;;;2.10;1.60;;;16.30;99.90;;;;;;4179662;28;20083;-69
2023/09/22 03:10:00;;;;;;;3.30;1.48;;;16.30;99.90;;;;;;4182467;28;20456;-69
2023/09/22 03:12:01;;;;;;;3.08;1.80;;;16.30;99.90;;;;;;4193930;28;20060;-69
2023/09/22 03:14:03;;;;;;;2.08;1.27;;;16.20;99.90;;;;;;4193945;28;20029;-69
2023/09/22 03:16:04;;;;;;;2.78;1.50;;;16.20;99.90;;;;;;4175983;28;20052;-68
2023/09/22 03:18:05;;;;;;;1.57;1.47;;;16.20;99.90;;;;;;4166996;28;20045;-69
2023/09/22 03:20:07;;;;;;;2.00;1.60;;;16.20;99.90;;;;;;4167942;28;20048;-71
2023/09/22 03:22:08;;;;;;;3.70;2.00;;;16.20;99.90;;;;;;4162609;28;20109;-71
2023/09/22 03:24:08;;;;;;;1.85;1.60;;;16.20;99.90;;;;;;4165801;28;20475;-72
2023/09/22 03:26:09;;;;;;;3.70;1.67;;;16.10;99.90;;;;;;4165874;28;20112;-72
2023/09/22 03:28:09;;;;;;;1.30;1.20;;;16.00;99.90;;;;;;4161366;28;20041;-72
2023/09/22 03:30:11;;;;;;;2.00;1.38;;;16.10;99.90;;;;;;4165379;28;20122;-71
2023/09/22 03:32:13;;;;;;;2.63;1.63;;;16.10;99.90;;;;;;4178136;28;20029;-72
2023/09/22 03:34:15;;;;;;;2.20;1.35;;;16.10;99.90;;;;;;4176041;28;20044;-71
2023/09/22 03:36:16;;;;;;;3.30;1.57;;;16.10;99.90;;;;;;4164337;28;20040;-72
2023/09/22 03:38:16;;;;;;;2.75;1.48;;;16.00;99.90;;;;;;4186300;28;20268;-72
2023/09/22 03:40:22;;;;;;;2.60;1.55;;;16.00;99.90;;;;;;4178243;28;20123;-72
2023/09/22 03:42:24;;;;;;;3.28;1.60;;;16.00;99.90;;;;;;4182502;28;20044;-72
2023/09/22 03:44:25;;;;;;;3.95;1.70;;;16.00;99.90;;;;;;4187455;28;20128;-71
2023/09/22 03:46:26;;;;;;;1.58;1.20;;;16.00;99.90;;;;;;4195822;28;20052;-72
2023/09/22 03:48:27;;;;;;;1.60;1.40;;;16.00;99.90;;;;;;4187992;28;20526;-72
2023/09/22 03:50:28;;;;;;;1.85;1.15;;;16.00;99.90;;;;;;4185736;28;20043;-72
2023/09/22 03:52:28;;;;;;;2.55;1.50;;;15.90;99.90;;;;;;4195437;28;20553;-72
2023/09/22 03:54:29;;;;;;;2.80;1.45;;;16.00;99.90;;;;;;4187367;28;20431;-72
2023/09/22 03:56:31;;;;;;;2.28;1.40;;;16.00;99.90;;;;;;4184606;28;20498;-72
2023/09/22 03:58:32;;;;;;;1.48;1.08;;;15.90;99.90;;;;;;4187481;28;20055;-71
2023/09/22 04:00:33;;;;;;;4.13;1.48;;;15.90;99.90;;;;;;4181348;28;20041;-71
2023/09/22 04:02:34;;;;;;;1.88;1.08;;;15.90;99.90;;;;;;4184126;28;20099;-71
2023/09/22 04:04:34;;;;;;;1.15;1.02;;;15.90;99.90;;;;;;4186572;28;20029;-72
2023/09/22 04:06:35;;;;;;;2.80;1.30;;;15.90;99.90;;;;;;4179123;28;20070;-72
2023/09/22 04:08:35;;;;;;;2.53;1.10;;;15.90;99.90;;;;;;4181763;28;20040;-71
2023/09/22 04:10:37;;;;;;;3.92;1.75;;;15.90;99.90;;;;;;4186387;28;20111;-72
2023/09/22 04:12:38;;;;;;;1.50;1.20;;;15.90;99.90;;;;;;4193906;28;20474;-72
2023/09/22 04:14:39;;;;;;;2.20;1.20;;;15.80;99.90;;;;;;4186635;28;20279;-72
2023/09/22 04:16:39;;;;;;;6.18;1.38;;;15.80;99.90;;;;;;4183364;28;20104;-71
2023/09/22 04:18:40;;;;;;;4.60;1.80;;;15.70;99.90;;;;;;4176815;28;20698;-71
2023/09/22 04:20:50;;;;;;;2.92;1.40;;;15.70;99.90;;;;;;4181427;28;20029;-71
2023/09/22 04:22:52;;;;;;;1.90;1.20;;;15.80;99.90;;;;;;4161216;28;20037;-72
2023/09/22 04:25:00;;;;;;;3.35;1.35;;;15.70;99.90;;;;;;4157584;28;20029;-71
2023/09/22 04:27:05;;;;;;;1.75;1.20;;;15.70;99.90;;;;;;4177180;28;20134;-71
2023/09/22 04:29:06;;;;;;;1.02;0.93;;;15.70;99.90;;;;;;4178963;28;20043;-71
2023/09/22 04:31:07;;;;;;;4.10;1.38;;;15.70;99.90;;;;;;4185621;28;20032;-71
2023/09/22 04:33:08;;;;;;;2.38;1.23;;;15.70;99.90;;;;;;4193190;28;20024;-71
2023/09/22 04:35:09;;;;;;;2.23;1.17;;;15.70;99.90;;;;;;4193870;28;20074;-69
2023/09/22 04:37:10;;;;;;;2.60;1.23;;;15.70;99.90;;;;;;4190242;28;20029;-69
2023/09/22 04:39:10;;;;;;;3.97;1.27;;;15.70;99.90;;;;;;4180196;28;20382;-68
2023/09/22 04:41:11;;;;;;;2.90;1.40;;;15.70;99.90;;;;;;4186130;28;20028;-69
2023/09/22 04:43:12;;;;;;;1.85;1.00;;;15.70;99.90;;;;;;4192291;28;20031;-69
2023/09/22 04:45:13;;;;;;;2.63;1.27;;;15.70;99.90;;;;;;4182294;28;20033;-69
2023/09/22 04:47:13;;;;;;;3.13;1.30;;;15.70;99.90;;;;;;4182298;28;20041;-69
2023/09/22 04:49:14;;;;;;;2.60;1.13;;;15.70;99.90;;;;;;4164371;28;20029;-69
2023/09/22 04:51:15;;;;;;;1.85;1.17;;;15.70;99.90;;;;;;4184005;28;20589;-69
2023/09/22 04:53:15;;;;;;;1.88;1.10;;;15.70;99.90;;;;;;4185837;28;20090;-69
2023/09/22 04:55:20;;;;;;;2.25;1.60;;;15.70;99.90;;;;;;4184676;28;20167;-69
2023/09/22 04:57:20;;;;;;;2.58;1.42;;;15.70;99.90;;;;;;4180800;28;20032;-70
2023/09/22 04:59:23;;;;;;;2.05;1.27;;;15.70;99.90;;;;;;4182604;28;20395;-69
2023/09/22 05:01:25;;;;;;;2.97;1.25;;;15.60;99.90;;;;;;4177716;28;20036;-69
2023/09/22 05:03:25;;;;;;;2.05;1.00;;;15.50;99.90;;;;;;4183414;28;20101;-69
2023/09/22 05:05:26;;;;;;;1.17;0.90;;;15.60;99.90;;;;;;4174152;28;21777;-70
2023/09/22 05:07:28;;;;;;;3.42;1.70;;;15.60;99.90;;;;;;4178741;28;20126;-71
2023/09/22 05:09:29;;;;;;;4.10;1.52;;;15.60;99.90;;;;;;4183167;28;20055;-70
2023/09/22 05:11:29;;;;;;;2.83;1.42;;;15.60;99.90;;;;;;4188018;28;20068;-70
2023/09/22 05:13:30;;;;;;;2.40;1.25;;;15.60;99.90;;;;;;4191308;28;20041;-69
2023/09/22 05:15:31;;;;;;;3.63;1.60;;;15.60;99.90;;;;;;4179504;28;20044;-70
2023/09/22 05:17:33;;;;;;;2.85;1.58;;;15.60;99.90;;;;;;4178690;28;20048;-70
2023/09/22 05:19:33;;;;;;;5.72;2.00;;;15.50;99.90;;;;;;4183294;28;20670;-69
2023/09/22 05:21:34;;;;;;;5.75;2.25;;;15.50;99.90;;;;;;4178320;28;20021;-72
2023/09/22 05:23:35;;;;;;;5.53;1.95;;;15.50;99.90;;;;;;4162592;28;20052;-72
2023/09/22 05:25:43;;;;;;;3.58;1.50;;;15.50;99.90;;;;;;4179152;28;20475;-71
2023/09/22 05:27:45;;;;;;;2.65;1.40;;;15.50;99.90;;;;;;4182913;28;20489;-71
2023/09/22 05:29:45;;;;;;;2.25;1.23;;;15.50;99.90;;;;;;4172508;28;20040;-71
2023/09/22 05:31:46;;;;;;;1.58;1.17;;;15.50;99.90;;;;;;4174191;28;20163;-72
2023/09/22 05:33:47;;;;;;;3.20;1.38;;;15.60;99.90;;;;;;4178600;28;20496;-72
2023/09/22 05:35:48;;;;;;;3.05;1.40;;;15.60;99.90;;;;;;4177139;28;20039;-71
2023/09/22 05:37:52;;;;;;;2.85;1.48;;;15.70;99.90;;;;;;4179346;28;20397;-72
2023/09/22 05:39:53;;;;;;;3.55;1.30;;;15.70;99.90;;;;;;4177858;28;20037;-72
2023/09/22 05:41:53;;;;;;;1.40;0.93;;;15.60;99.90;;;;;;4171108;28;20124;-69
2023/09/22 05:43:56;;;;;;;3.22;1.25;;;15.70;99.90;;;;;;4181078;28;20479;-67
2023/09/22 05:45:57;;;;;;;1.23;1.00;;;15.70;99.90;;;;;;4180348;28;20468;-68
2023/09/22 05:47:57;;;;;;;3.10;1.48;;;15.60;99.90;;;;;;4178380;28;20037;-68
2023/09/22 05:49:59;;;;;;;1.88;1.05;;;15.60;99.90;;;;;;4178509;28;20037;-68
2023/09/22 05:52:00;;;;;;;1.92;1.20;;;15.70;99.90;;;;;;4175259;28;20154;-67
2023/09/22 05:54:03;;;;;;;2.80;1.42;;;15.60;99.90;;;;;;4178373;28;20406;-68
2023/09/22 05:56:11;;;;;;;4.82;1.08;;;15.70;99.90;;;;;;4172508;28;20064;-69
2023/09/22 05:58:12;;;;;;;1.65;0.88;;;15.70;99.90;;;;;;4166149;28;20036;-67
2023/09/22 06:00:16;;;;;;;2.25;1.08;;;15.60;99.90;;;;;;4139849;28;20483;-68
2023/09/22 06:02:17;;;;;;;3.50;1.33;;;15.60;99.90;;;;;;4179268;28;20036;-67
2023/09/22 06:04:18;;;;;;;2.15;1.23;;;15.70;99.90;;;;;;4177839;28;20041;-66
2023/09/22 06:06:19;;;;;;;2.70;1.38;;;15.70;99.90;;;;;;4174484;28;20060;-67
2023/09/22 06:08:20;;;;;;;3.05;1.50;;;15.70;99.90;;;;;;4164168;28;20036;-67
2023/09/22 06:10:21;;;;;;;3.20;1.73;;;15.70;99.90;;;;;;4167177;28;20113;-67
2023/09/22 06:12:21;;;;;;;4.45;1.88;;;15.70;99.90;;;;;;4179104;28;20044;-67
2023/09/22 06:14:22;;;;;;;9.00;2.03;;;15.70;99.90;;;;;;4176522;28;20032;-67
2023/09/22 06:16:25;;;;;;;2.53;1.42;;;15.70;99.90;;;;;;4180682;28;20048;-67
2023/09/22 06:18:26;;;;;;;2.70;1.30;;;15.70;99.90;;;;;;4177650;28;20744;-68
2023/09/22 06:20:26;;;;;;;3.60;1.58;;;15.70;99.90;;;;;;4173409;28;20072;-67
2023/09/22 06:22:27;;;;;;;1.65;1.17;;;15.70;99.90;;;;;;4179973;28;20738;-66
2023/09/22 06:24:28;;;;;;;2.53;1.25;;;15.70;99.90;;;;;;4175901;28;20076;-67
2023/09/22 06:26:28;;;;;;;3.22;1.40;;;15.70;99.90;;;;;;4176330;28;20491;-68
2023/09/22 06:28:29;;;;;;;3.22;1.48;;;15.80;99.90;;;;;;4183350;28;20041;-67
2023/09/22 06:30:30;;;;;;;1.20;0.90;;;15.80;99.90;;;;;;4149535;28;20154;-67
2023/09/22 06:32:31;;;;;;;3.70;1.23;;;16.00;99.90;;;;;;4175148;28;20037;-72
2023/09/22 06:34:32;;;;;;;3.03;1.63;;;16.10;99.90;;;;;;4177370;28;20542;-71
2023/09/22 06:36:34;;;;;;;3.88;1.30;;;16.30;99.90;;;;;;4177115;28;20037;-71
2023/09/22 06:38:35;;;;;;;3.03;1.15;;;16.40;99.90;;;;;;4176959;28;20081;-69
2023/09/22 06:40:39;;;;;;;2.67;1.38;;;16.50;99.90;;;;;;4176895;28;21189;-72
2023/09/22 06:42:41;;;;;;;2.20;1.20;;;16.60;99.90;;;;;;4177819;28;20033;-71
2023/09/22 06:44:42;;;;;;;4.15;1.13;;;16.80;99.90;;;;;;4173895;28;20033;-72
2023/09/22 06:46:43;;;;;;;3.55;1.40;;;16.90;99.90;;;;;;4176611;28;20083;-72
2023/09/22 06:48:44;;;;;;;2.25;1.10;;;17.10;99.90;;;;;;4177774;28;20398;-72
2023/09/22 06:50:45;;;;;;;2.70;1.08;;;17.30;99.90;;;;;;4175667;28;20060;-69
2023/09/22 06:52:45;;;;;;;3.42;1.27;;;17.40;99.90;;;;;;4167909;28;20119;-67
2023/09/22 06:54:46;;;;;;;9.32;1.40;;;17.60;99.90;;;;;;4179022;28;20487;-69
2023/09/22 06:56:46;;;;;;;3.90;1.33;;;17.70;99.90;;;;;;4179082;28;20044;-67
2023/09/22 06:58:47;;;;;;;5.55;1.20;;;17.90;99.90;;;;;;4175943;28;20033;-68
2023/09/22 07:00:48;;;;;;;2.10;1.10;;;17.90;99.90;;;;;;4174427;28;20091;-66
2023/09/22 07:02:49;;;;;;;3.00;1.23;;;18.10;99.90;;;;;;4187125;28;20037;-67
2023/09/22 07:04:50;;;;;;;2.83;1.20;;;18.30;99.90;;;;;;4183919;28;20510;-67
2023/09/22 07:06:52;;;;;;;3.15;1.23;;;18.40;99.90;;;;;;4176276;28;20017;-67
2023/09/22 07:08:52;;;;;;;3.20;1.17;;;18.50;99.90;;;;;;4177846;28;20032;-67
2023/09/22 07:11:00;;;;;;;1.33;0.93;;;18.60;99.90;;;;;;4176493;28;20335;-68
2023/09/22 07:13:02;;;;;;;2.08;0.90;;;18.80;99.90;;;;;;4182881;28;20044;-67
2023/09/22 07:15:03;;;;;;;2.83;0.98;;;18.90;99.90;;;;;;4182839;28;20028;-69
2023/09/22 07:17:04;;;;;;;1.20;0.60;;;19.00;99.90;;;;;;4182080;28;20070;-67
2023/09/22 07:19:04;;;;;;;2.08;1.02;;;19.10;99.90;;;;;;4183762;28;20413;-70
2023/09/22 07:21:11;;;;;;;3.95;1.27;;;19.20;99.90;;;;;;4179052;28;20037;-67
2023/09/22 07:23:12;;;;;;;1.15;0.70;;;19.30;99.90;;;;;;4183925;28;20039;-67
2023/09/22 07:25:14;;;;;;;1.70;0.98;;;19.40;99.90;;;;;;4184144;28;20845;-67
2023/09/22 07:27:14;;;;;;;2.72;0.80;;;19.40;99.90;;;;;;4184632;28;20036;-66
2023/09/22 07:29:17;;;;;;;2.20;0.77;;;19.60;99.90;;;;;;4181814;28;20090;-66
2023/09/22 07:31:18;;;;;;;2.97;1.10;;;19.70;99.90;;;;;;4180090;28;20025;-67
2023/09/22 07:33:19;;;;;;;2.30;0.77;;;19.80;99.90;;;;;;4182135;28;20036;-67
2023/09/22 07:35:20;;;;;;;1.98;0.90;;;19.90;99.90;;;;;;4182819;28;20181;-66
2023/09/22 07:37:20;;;;;;;1.00;0.63;;;20.00;99.90;;;;;;4180320;28;20662;-66
2023/09/22 07:39:21;;;;;;;1.10;0.60;;;20.10;99.90;;;;;;4183339;28;20033;-68
2023/09/22 07:41:21;;;;;;;4.53;0.75;;;20.30;99.90;;;;;;4179074;28;20148;-66
2023/09/22 07:43:28;;;;;;;1.55;0.70;;;20.10;99.90;;;;;;4180163;28;20576;-66
2023/09/22 07:45:29;;;;;;;5.97;0.75;;;20.30;99.90;;;;;;4181004;28;20094;-67
2023/09/22 07:47:29;;;;;;;2.00;0.57;;;20.40;99.90;;;;;;4180825;28;20044;-68
2023/09/22 07:49:30;;;;;;;1.55;0.52;;;20.50;99.90;;;;;;4183129;28;20107;-68
2023/09/22 07:51:31;;;;;;;0.90;0.60;;;20.50;99.90;;;;;;4180093;28;20623;-67
2023/09/22 07:53:33;;;;;;;1.08;0.50;;;20.50;99.90;;;;;;4181454;28;20063;-66
2023/09/22 07:55:33;;;;;;;1.27;0.67;;;20.60;99.90;;;;;;4178215;28;20064;-68
2023/09/22 07:57:34;;;;;;;0.65;0.57;;;20.40;99.90;;;;;;4178033;28;20029;-67
2023/09/22 07:59:34;;;;;;;1.80;0.85;;;20.60;99.90;;;;;;4183721;28;20431;-66
2023/09/22 08:01:35;;;;;;;1.77;0.70;;;20.50;99.90;;;;;;4177182;28;20160;-69
2023/09/22 08:03:36;;;;;;;0.90;0.40;;;20.40;99.90;;;;;;4181329;28;20044;-69
2023/09/22 08:05:39;;;;;;;3.35;0.60;;;20.40;99.90;;;;;;4179975;28;20500;-68
2023/09/22 08:07:42;;;;;;;;;;;20.40;99.90;;;;;;4180910;28;20041;-69
2023/09/22 08:09:43;;;;;;;1.38;0.68;;;20.40;99.90;;;;;;4136418;28;20008;-68
2023/09/22 08:11:43;;;;;;;2.35;0.73;;;20.20;99.90;;;;;;4179758;28;20045;-66
2023/09/22 08:13:47;;;;;;;2.00;0.93;;;20.10;99.90;;;;;;4182271;28;20115;-66
2023/09/22 08:15:48;;;;;;;1.33;0.60;;;20.10;99.90;;;;;;4181266;28;20044;-66
2023/09/22 08:17:49;;;;;;;3.40;1.00;;;20.10;99.90;;;;;;4171045;28;20499;-66
2023/09/22 08:19:50;;;;;;;0.98;0.60;;;19.80;99.90;;;;;;4177510;28;20044;-67
2023/09/22 08:21:51;;;;;;;0.77;0.43;;;19.80;99.90;;;;;;4180691;28;20025;-66
2023/09/22 08:23:51;;;;;;;1.60;0.70;;;19.70;99.90;;;;;;4179664;28;20046;-69
2023/09/22 08:25:56;;;;;;;1.15;0.60;;;19.70;99.90;;;;;;4184626;28;20048;-66
2023/09/22 08:27:58;;;;;;;1.27;0.55;;;19.70;99.90;;;;;;4179386;28;20494;-66
2023/09/22 08:29:59;;;;;;;1.73;0.70;;;19.50;99.90;;;;;;4183312;28;20049;-66
2023/09/22 08:32:00;;;;;;;2.45;0.88;;;19.50;99.90;;;;;;4187385;28;20044;-66
2023/09/22 08:34:02;;;;;;;4.80;1.05;;;19.30;99.90;;;;;;4194876;28;20039;-66
2023/09/22 08:36:03;;;;;;;1.15;0.45;;;19.20;99.90;;;;;;4185642;28;20036;-66
2023/09/22 08:38:05;;;;;;;2.35;1.15;;;19.20;99.90;;;;;;4176576;28;20025;-67
2023/09/22 08:40:11;;;;;;;2.95;0.80;;;19.20;99.90;;;;;;4182240;28;20033;-67
2023/09/22 08:42:12;;;;;;;1.42;0.80;;;19.20;99.90;;;;;;4183282;28;20047;-67
2023/09/22 08:44:13;;;;;;;2.90;1.00;;;19.30;99.90;;;;;;4186794;28;20040;-66
2023/09/22 08:46:14;;;;;;;3.15;0.70;;;19.40;99.90;;;;;;4182646;28;20069;-65
2023/09/22 08:48:14;;;;;;;1.42;0.60;;;19.40;99.90;;;;;;4188453;28;20119;-65
2023/09/22 08:50:17;;;;;;;1.55;0.38;;;19.40;99.90;;;;;;4180060;28;20037;-66
2023/09/22 08:52:22;;;;;;;1.10;0.70;;;19.40;99.90;;;;;;4176213;28;20035;-66
2023/09/22 08:54:22;;;;;;;3.58;0.80;;;19.40;99.90;;;;;;4185004;28;20389;-65
2023/09/22 08:56:25;;;;;;;1.20;0.75;;;19.50;99.90;;;;;;4178517;28;20493;-67
2023/09/22 08:58:26;;;;;;;1.00;0.63;;;19.60;99.90;;;;;;4183691;28;20437;-70
2023/09/22 09:00:29;;;;;;;2.72;0.90;;;19.60;99.90;;;;;;4162395;28;20039;-71
2023/09/22 09:02:30;;;;;;;;;;;19.70;99.90;;;;;;4184661;28;20045;-72
2023/09/22 09:04:40;;;;;;;1.83;0.80;;;19.70;99.90;;;;;;4185266;28;19940;-71
2023/09/22 09:06:47;;;;;;;3.00;0.60;;;19.60;99.90;;;;;;4181490;28;20047;-73
2023/09/22 09:09:09;;;;;;;1.92;0.80;;;19.70;99.90;;;;;;4180775;28;20123;-69
2023/09/22 09:11:11;;;;;;;;;;;19.70;99.90;;;;;;4182196;28;20077;-71
2023/09/22 09:13:19;;;;;;;0.98;0.73;;;19.70;99.90;;;;;;4180121;28;20386;-71
2023/09/22 09:15:27;;;;;;;1.48;0.50;;;19.70;99.90;;;;;;4194336;28;20037;-71
2023/09/22 09:17:28;;;;;;;2.80;1.10;;;19.80;99.90;;;;;;4178614;28;20166;-70
2023/09/22 09:19:30;;;;;;;2.03;0.90;;;19.70;99.90;;;;;;4179701;28;20101;-71
2023/09/22 09:21:31;;;;;;;1.77;0.70;;;19.70;99.90;;;;;;4177297;28;20984;-65
2023/09/22 09:23:32;;;;;;;2.95;0.88;;;19.70;99.90;;;;;;4179355;28;20040;-65
2023/09/22 09:25:43;;;;;;;1.35;0.70;;;19.80;99.90;;;;;;4180602;28;20029;-65
2023/09/22 09:27:44;;;;;;;1.27;0.60;;;19.80;99.90;;;;;;4180734;28;20128;-66
2023/09/22 09:29:53;;;;;;;2.38;0.82;;;19.70;99.90;;;;;;4165481;28;20079;-66
2023/09/22 09:31:53;;;;;;;1.60;0.60;;;19.60;99.90;;;;;;4174691;28;20045;-65
2023/09/22 09:33:54;;;;;;;2.15;0.68;;;19.50;99.90;;;;;;4177028;28;20044;-66
2023/09/22 09:35:58;;;;;;;1.63;0.80;;;19.50;99.90;;;;;;4178209;28;20401;-66
2023/09/22 09:38:02;;;;;;;1.40;0.68;;;19.50;99.90;;;;;;4179656;28;20124;-65
2023/09/22 09:40:03;;;;;;;3.05;0.63;;;19.50;99.90;;;;;;4179623;28;20048;-67
2023/09/22 09:42:05;;;;;;;3.05;0.60;;;19.50;99.90;;;;;;4178824;28;20029;-65
2023/09/22 09:44:07;;;;;;;1.58;0.70;;;19.40;99.90;;;;;;4178168;28;20090;-67
2023/09/22 09:46:10;;;;;;;1.88;0.80;;;19.40;99.90;;;;;;4174258;28;20123;-66
2023/09/22 09:48:16;;;;;;;3.92;0.73;;;19.40;99.90;;;;;;4174489;28;20428;-66
2023/09/22 09:50:21;;;;;;;1.88;1.00;;;19.40;99.90;;;;;;4174892;28;20037;-64
2023/09/22 09:52:28;;;;;;;0.98;0.65;;;19.40;99.90;;;;;;4178433;28;20449;-65
2023/09/22 09:54:29;;;;;;;2.67;0.90;;;19.40;99.90;;;;;;4180696;28;20505;-65
2023/09/22 09:56:30;;;;;;;1.93;0.60;;;19.40;99.90;;;;;;4176483;28;20043;-66
2023/09/22 09:58:34;;;;;;;1.52;0.70;;;19.40;99.90;;;;;;4173585;28;20393;-65
2023/09/22 10:00:35;;;;;;;2.60;0.90;;;19.30;99.90;;;;;;4174956;28;20041;-65
2023/09/22 10:02:36;;;;;;;3.63;0.93;;;19.20;99.90;;;;;;4179888;28;20033;-71
2023/09/22 10:04:39;;;;;;;1.77;0.70;;;19.10;99.90;;;;;;4176575;28;20055;-71
2023/09/22 10:09:36;;;;;;;2.65;0.95;;;19.10;99.90;;;;;;4170503;28;20383;-70
2023/09/22 10:11:37;;;;;;;2.17;0.85;;;19.00;99.90;;;;;;4159078;28;20032;-68
2023/09/22 10:13:41;;;;;;;3.22;1.13;;;19.00;99.90;;;;;;4187506;28;20033;-71
2023/09/22 10:16:02;;;;;;;3.60;0.90;;;19.00;99.90;;;;;;4160716;28;20026;-71
2023/09/22 10:18:04;;;;;;;2.63;0.98;;;18.90;99.90;;;;;;4177484;28;20379;-70
2023/09/22 10:20:12;;;;;;;3.60;0.95;;;18.90;99.90;;;;;;4176380;28;20021;-70
2023/09/22 10:22:12;;;;;;;2.80;1.02;;;18.90;99.90;;;;;;4181760;28;20505;-71
2023/09/22 10:24:16;;;;;;;3.25;0.80;;;18.80;99.90;;;;;;4159698;28;20037;-71
2023/09/22 10:26:17;;;;;;;1.42;0.60;;;18.70;99.90;;;;;;4176856;28;20021;-69
2023/09/22 10:28:29;;;;;;;2.08;0.85;;;18.70;99.90;;;;;;4176471;28;20045;-72
2023/09/22 10:30:45;;;;;;;2.28;0.90;;;18.70;99.90;;;;;;4168015;28;20103;-71
2023/09/22 10:32:45;;;;;;;1.80;0.80;;;18.70;99.90;;;;;;4176196;28;20025;-66
2023/09/22 10:34:53;;;;;;;1.48;0.65;;;18.70;99.90;;;;;;4178118;28;20086;-66
2023/09/22 10:36:54;;;;;;;1.63;0.60;;;18.60;99.90;;;;;;4173996;28;20040;-65